One Hundred Palms, California
Current Conditions -  °F | °C
As of 7:56 PM on Saturday 24 Jan 2015 (Local Time) from KNJK Reporting Station
Clear Clear  
Wind Chill: 52°   Ceiling: Unl
Heat Index: 52°   Visibility: 10mi
Dew Point: 16°   Wind: 7mph
Humidity: 24%   Direction: 270°W
Pressure: 30.06"   Gusts: NA
Location:  33.093°N, 116.06°W
Report Text: KNJK 250356Z AUTO 27006KT 10SM CLR 11/M09 A3006 RMK AO2 SLP194 T01111089 $
Loading
Personal Weather Stations






























Interactive Weather Map New forecast layout! Learn more

10-Day Weather Forecast

Advertisements
Track Severe Weather on mobile